Time;durP1;ratioP1;P1;durP2;ratioP2;P2;SDS_P1;SDS_P2;PMS_P1;PMS_P2;Temp;Humidity;BMP_temperature;BMP_pressure;BME280_temperature;BME280_humidity;BME280_pressure;Samples;Min_cycle;Max_cycle;Signal;HPM_P1;HPM_P2
2023/09/20 00:01:51;;;;;;;2.47;0.63;;;;;;;14.90;57.64;97695.94;10574416;28;20064;-63
2023/09/20 00:07:12;;;;;;;1.58;0.50;;;;;;;14.91;57.77;97694.59;10573370;28;20071;-62
2023/09/20 00:12:33;;;;;;;1.50;0.57;;;;;;;14.87;57.91;97688.78;10573505;28;20550;-63
2023/09/20 00:17:54;;;;;;;2.40;0.73;;;;;;;14.87;58.31;97697.94;10573820;28;20466;-63
2023/09/20 00:23:20;;;;;;;5.55;0.65;;;;;;;14.85;58.48;97695.00;10572674;28;20073;-63
2023/09/20 00:28:42;;;;;;;3.35;0.63;;;;;;;14.85;58.67;97694.28;10573586;28;20047;-62
2023/09/20 00:34:03;;;;;;;1.88;0.70;;;;;;;14.78;58.47;97700.97;10554707;28;20454;-63
2023/09/20 00:39:24;;;;;;;1.42;0.60;;;;;;;14.71;58.70;97693.59;10545240;28;20139;-63
2023/09/20 00:44:46;;;;;;;3.83;0.77;;;;;;;14.61;59.07;97688.19;10543884;28;20083;-63
2023/09/20 00:50:13;;;;;;;1.88;0.65;;;;;;;14.57;59.49;97691.53;10544005;28;20075;-63
2023/09/20 00:55:35;;;;;;;2.40;0.60;;;;;;;14.58;59.86;97687.34;10529979;28;20052;-63
2023/09/20 01:00:56;;;;;;;2.25;0.70;;;;;;;14.62;59.77;97686.81;10529315;28;20123;-62
2023/09/20 01:06:19;;;;;;;1.30;0.40;;;;;;;14.62;60.24;97686.09;10543159;28;20068;-63
2023/09/20 01:11:41;;;;;;;1.55;0.50;;;;;;;14.64;60.36;97686.19;10544168;28;20132;-63
2023/09/20 01:17:08;;;;;;;2.45;0.70;;;;;;;14.69;60.61;97690.69;10528672;28;20047;-63
2023/09/20 01:22:29;;;;;;;1.85;0.60;;;;;;;14.74;60.88;97687.44;10543018;28;20126;-62
2023/09/20 01:27:50;;;;;;;1.80;0.73;;;;;;;14.72;60.90;97686.59;10543249;28;20071;-63
2023/09/20 01:33:12;;;;;;;1.20;0.50;;;;;;;14.70;61.17;97684.44;10541895;28;20079;-63
2023/09/20 01:38:34;;;;;;;3.17;1.08;;;;;;;14.65;61.33;97677.13;10541681;28;20201;-63
2023/09/20 01:43:56;;;;;;;2.15;0.55;;;;;;;14.60;61.40;97684.66;10541465;28;20074;-63
2023/09/20 01:49:17;;;;;;;2.70;0.80;;;;;;;14.57;61.42;97676.72;10541511;28;20081;-63
2023/09/20 01:54:38;;;;;;;1.80;0.50;;;;;;;14.43;61.82;97682.31;10526921;28;20074;-62
2023/09/20 01:59:58;;;;;;;1.55;0.70;;;;;;;14.29;62.20;97681.59;10541990;28;20102;-62
2023/09/20 02:05:21;;;;;;;3.22;0.65;;;;;;;14.20;62.79;97688.88;10540931;28;20139;-63
2023/09/20 02:10:41;;;;;;;1.60;0.57;;;;;;;14.14;63.34;97679.41;10540504;28;20048;-63
2023/09/20 02:16:03;;;;;;;1.67;0.60;;;;;;;14.04;63.60;97676.78;10512407;28;20079;-63
2023/09/20 02:21:24;;;;;;;1.60;0.80;;;;;;;13.95;63.95;97675.63;10539897;28;20517;-63
2023/09/20 02:26:48;;;;;;;2.55;0.80;;;;;;;13.91;64.38;97675.41;10526003;28;20051;-62
2023/09/20 02:32:12;;;;;;;1.90;0.60;;;;;;;13.81;65.09;97674.88;10540858;28;20070;-63
2023/09/20 02:37:36;;;;;;;3.00;0.57;;;;;;;13.81;65.06;97671.34;10541549;28;20044;-64
2023/09/20 02:42:58;;;;;;;1.45;0.60;;;;;;;13.81;65.34;97676.97;10513936;28;20040;-63
2023/09/20 02:48:20;;;;;;;1.80;0.75;;;;;;;13.86;65.59;97678.63;10539841;28;20048;-63
2023/09/20 02:53:41;;;;;;;4.68;1.27;;;;;;;13.88;65.64;97673.09;10525107;28;20056;-63
2023/09/20 02:59:06;;;;;;;4.75;0.95;;;;;;;13.88;66.14;97673.84;10524301;28;20052;-63
2023/09/20 03:04:27;;;;;;;1.75;0.80;;;;;;;13.89;66.08;97672.47;10538414;28;20115;-62
2023/09/20 03:09:48;;;;;;;2.53;0.80;;;;;;;13.87;65.78;97682.88;10538357;28;20075;-62
2023/09/20 03:15:16;;;;;;;4.55;0.85;;;;;;;13.83;66.28;97682.69;10524177;28;20048;-63
2023/09/20 03:20:38;;;;;;;1.98;0.82;;;;;;;13.82;66.24;97679.13;10539247;28;20059;-63
2023/09/20 03:26:02;;;;;;;1.58;0.70;;;;;;;13.80;66.39;97681.84;10539569;28;20044;-64
2023/09/20 03:31:26;;;;;;;4.43;0.90;;;;;;;13.80;66.87;97689.50;10526562;28;20040;-63
2023/09/20 03:36:50;;;;;;;1.83;0.85;;;;;;;13.79;67.07;97691.59;10538141;28;20063;-63
2023/09/20 03:42:11;;;;;;;2.30;0.90;;;;;;;13.76;66.99;97695.63;10538000;28;20044;-63
2023/09/20 03:47:33;;;;;;;2.70;0.82;;;;;;;13.77;67.18;97690.75;10524214;28;20486;-63
2023/09/20 03:52:55;;;;;;;1.25;0.80;;;;;;;13.74;66.88;97692.72;10537722;28;20052;-63
2023/09/20 03:58:18;;;;;;;4.13;0.90;;;;;;;13.73;67.13;97689.19;10538743;28;20052;-63
2023/09/20 04:03:42;;;;;;;3.85;1.10;;;;;;;13.71;67.30;97685.56;10537377;28;20551;-62
2023/09/20 04:09:10;;;;;;;2.85;0.98;;;;;;;13.66;67.17;97689.47;10541888;28;20474;-63
2023/09/20 04:14:31;;;;;;;2.83;0.90;;;;;;;13.70;67.75;97696.06;10531886;28;20052;-63
2023/09/20 04:19:53;;;;;;;3.30;1.10;;;;;;;13.73;68.03;97694.06;10530473;28;20052;-62
2023/09/20 04:25:14;;;;;;;5.07;1.17;;;;;;;13.90;67.92;97707.63;10544867;28;20036;-63
2023/09/20 04:30:38;;;;;;;2.95;1.08;;;;;;;14.00;67.40;97696.22;10544314;28;20044;-63
2023/09/20 04:36:04;;;;;;;4.60;1.05;;;;;;;14.17;67.37;97709.03;10544299;28;20476;-62
2023/09/20 04:41:25;;;;;;;2.85;1.15;;;;;;;14.27;67.59;97706.75;10544120;28;20055;-63
2023/09/20 04:46:47;;;;;;;4.43;1.00;;;;;;;14.33;67.46;97702.19;10543891;28;20394;-63
2023/09/20 04:52:11;;;;;;;2.65;1.15;;;;;;;14.46;67.20;97712.00;10543653;28;20067;-63
2023/09/20 04:57:34;;;;;;;2.10;1.15;;;;;;;14.52;66.91;97712.31;10544426;28;20098;-63
2023/09/20 05:02:55;;;;;;;2.97;0.90;;;;;;;14.75;67.03;97716.25;10543319;28;20109;-63
2023/09/20 05:08:18;;;;;;;3.55;1.10;;;;;;;14.78;66.89;97717.81;10543977;28;20046;-63
2023/09/20 05:13:39;;;;;;;3.17;0.90;;;;;;;14.95;66.82;97722.88;10528810;28;20455;-63
2023/09/20 05:19:01;;;;;;;3.72;0.85;;;;;;;15.80;69.02;97711.50;10543047;28;20076;-63
2023/09/20 05:24:23;;;;;;;2.58;1.15;;;;;;;20.69;64.00;97716.25;10541869;28;20055;-64
2023/09/20 05:29:44;;;;;;;2.33;0.85;;;;;;;25.64;55.89;97717.19;10543021;28;20394;-64
2023/09/20 05:35:06;;;;;;;2.20;0.90;;;;;;;29.26;46.20;97714.59;10539299;28;20070;-65
2023/09/20 05:40:28;;;;;;;2.63;0.93;;;;;;;32.44;40.02;97724.84;10523290;28;20687;-64
2023/09/20 05:45:49;;;;;;;2.00;0.73;;;;;;;32.79;36.20;97724.84;10538115;28;20128;-64
2023/09/20 05:51:14;;;;;;;1.65;0.70;;;;;;;28.02;35.56;97720.84;10537578;28;20224;-65
2023/09/20 05:56:35;;;;;;;2.67;0.85;;;;;;;26.12;39.86;97722.53;10539247;28;20506;-64
2023/09/20 06:01:58;;;;;;;5.20;0.95;;;;;;;32.11;36.31;97725.44;10541455;28;20497;-64
2023/09/20 06:07:19;;;;;;;1.45;0.70;;;;;;;38.98;26.16;97729.53;10540944;28;20056;-65
2023/09/20 06:12:39;;;;;;;1.38;0.70;;;;;;;42.81;20.54;97736.50;10540378;28;20507;-65
2023/09/20 06:18:00;;;;;;;1.67;0.70;;;;;;;45.44;16.34;97736.34;10539671;28;20076;-68
2023/09/20 06:23:25;;;;;;;3.22;0.60;;;;;;;46.27;14.86;97719.81;10540668;28;20134;-68
2023/09/20 06:28:48;;;;;;;3.10;0.70;;;;;;;47.23;12.51;97716.59;10540277;28;20071;-67
2023/09/20 06:34:09;;;;;;;1.77;0.60;;;;;;;47.20;11.49;97699.91;10539009;28;20176;-68
2023/09/20 06:39:30;;;;;;;3.20;0.57;;;;;;;47.48;10.83;97721.16;10540066;28;20064;-67
2023/09/20 06:44:55;;;;;;;3.05;0.60;;;;;;;47.75;10.30;97722.66;10539918;28;20135;-68
2023/09/20 06:50:17;;;;;;;4.22;0.50;;;;;;;48.28;10.34;97724.09;10539766;28;20064;-68
2023/09/20 06:55:38;;;;;;;2.30;0.80;;;;;;;51.30;9.28;97726.66;10539995;28;20563;-68
2023/09/20 07:00:59;;;;;;;1.63;0.40;;;;;;;51.73;8.22;97729.03;10539520;28;20118;-68
2023/09/20 07:06:20;;;;;;;2.20;0.57;;;;;;;53.14;7.41;97735.38;10539411;28;20133;-67
2023/09/20 07:11:41;;;;;;;2.50;0.50;;;;;;;53.59;7.15;97730.56;10539631;28;20071;-69
2023/09/20 07:17:07;;;;;;;1.05;0.38;;;;;;;53.34;7.08;97730.19;10539253;28;20470;-69
2023/09/20 07:22:29;;;;;;;3.03;0.35;;;;;;;54.37;6.33;97738.34;10538849;28;20063;-69
2023/09/20 07:27:50;;;;;;;1.40;0.60;;;;;;;55.61;5.80;97742.06;10538860;28;20052;-69
2023/09/20 07:33:13;;;;;;;2.38;0.40;;;;;;;57.17;4.97;97727.06;10538844;28;20083;-69
2023/09/20 07:38:36;;;;;;;2.40;0.50;;;;;;;57.41;5.03;97730.00;10539033;28;20063;-69
2023/09/20 07:43:57;;;;;;;1.23;0.40;;;;;;;57.33;5.30;97722.75;10543199;28;20125;-69
2023/09/20 07:49:19;;;;;;;1.83;0.40;;;;;;;57.60;5.14;97719.41;10547112;28;20075;-68
2023/09/20 07:54:40;;;;;;;3.97;0.45;;;;;;;56.96;4.76;97710.94;10545822;28;20101;-68
2023/09/20 08:00:05;;;;;;;1.92;0.30;;;;;;;56.21;4.82;97718.47;10546813;28;20406;-68
2023/09/20 08:05:31;;;;;;;1.95;0.30;;;;;;;55.62;4.83;97716.50;10546326;28;20055;-68
2023/09/20 08:10:52;;;;;;;0.65;0.30;;;;;;;55.85;4.87;97716.84;10546178;28;20135;-68
2023/09/20 08:16:33;;;;;;;0.98;0.40;;;;;;;55.49;5.81;97713.56;10546120;28;20068;-68
2023/09/20 08:22:17;;;;;;;1.60;0.50;;;;;;;54.23;5.14;97725.00;10546187;28;20189;-69
2023/09/20 09:01:53;;;;;;;2.22;0.47;;;;;;;56.05;4.65;97690.47;10544017;28;20185;-69
2023/09/20 09:07:14;;;;;;;1.67;0.60;;;;;;;55.42;5.01;97689.00;10543831;28;20075;-69
2023/09/20 09:12:34;;;;;;;1.50;0.50;;;;;;;56.47;4.34;97668.97;10542807;28;20059;-69
2023/09/20 09:17:55;;;;;;;5.70;0.70;;;;;;;57.18;4.65;97672.16;10543489;28;20052;-69
2023/09/20 09:23:33;;;;;;;1.35;0.70;;;;;;;57.71;3.80;97673.78;10543113;28;20513;-69
2023/09/20 09:28:55;;;;;;;1.98;0.80;;;;;;;58.45;3.78;97665.69;10542905;28;20095;-69
2023/09/20 09:34:21;;;;;;;3.20;1.10;;;;;;;59.51;3.07;97657.59;10542585;28;20047;-69
2023/09/20 09:39:57;;;;;;;3.88;0.63;;;;;;;53.81;5.49;97655.81;10542766;28;20044;-69
2023/09/20 09:45:31;;;;;;;0.85;0.50;;;;;;;52.90;5.62;97643.31;10541318;28;20463;-68
2023/09/20 09:50:53;;;;;;;2.88;0.30;;;;;;;45.57;8.59;97633.69;10542468;28;20052;-69
2023/09/20 09:56:14;;;;;;;2.00;0.40;;;;;;;45.72;10.87;97633.31;10527050;28;20075;-69
2023/09/20 10:01:36;;;;;;;2.08;0.30;;;;;;;51.70;7.40;97623.75;10541764;28;20072;-68
2023/09/20 10:07:09;;;;;;;0.88;0.20;;;;;;;51.80;6.30;97616.09;10539613;28;20067;-68
2023/09/20 10:12:30;;;;;;;2.20;0.30;;;;;;;48.83;8.18;97621.56;10540501;28;20047;-68
2023/09/20 10:17:51;;;;;;;1.02;0.30;;;;;;;51.11;6.78;97591.09;10525943;28;20067;-68
2023/09/20 10:23:12;;;;;;;1.38;0.30;;;;;;;51.01;6.45;97592.09;10539900;28;20524;-68
2023/09/20 10:28:39;;;;;;;1.23;0.25;;;;;;;48.12;7.81;97595.31;10540528;28;20089;-68
2023/09/20 10:34:01;;;;;;;0.80;0.28;;;;;;;51.67;7.59;97580.97;10539482;28;20051;-68
2023/09/20 10:39:22;;;;;;;1.20;0.32;;;;;;;54.07;5.19;97571.63;10539162;28;20051;-69
2023/09/20 10:44:43;;;;;;;1.27;0.40;;;;;;;53.84;5.10;97580.06;10539992;28;20052;-69
2023/09/20 10:50:05;;;;;;;1.02;0.40;;;;;;;53.86;5.46;97567.94;10539867;28;20048;-69
2023/09/20 10:55:35;;;;;;;1.10;0.40;;;;;;;54.84;4.78;97553.75;10538435;28;20075;-68
2023/09/20 11:00:57;;;;;;;1.00;0.40;;;;;;;53.87;4.62;97550.72;10539677;28;20048;-69
2023/09/20 11:06:18;;;;;;;2.05;0.40;;;;;;;52.92;5.08;97548.44;10538162;28;20044;-69
2023/09/20 11:11:39;;;;;;;1.98;0.30;;;;;;;52.41;5.21;97528.66;10539275;28;20497;-68
2023/09/20 11:17:02;;;;;;;0.65;0.30;;;;;;;50.17;6.70;97521.69;10539012;28;20093;-68
2023/09/20 11:22:22;;;;;;;0.63;0.30;;;;;;;51.42;5.86;97510.72;10538063;28;20110;-68
2023/09/20 11:27:44;;;;;;;0.60;0.30;;;;;;;50.11;6.59;97502.91;10538016;28;20072;-68
2023/09/20 11:33:05;;;;;;;3.78;0.40;;;;;;;50.30;6.38;97507.75;10537796;28;20045;-67
2023/09/20 11:38:26;;;;;;;2.10;0.35;;;;;;;50.24;5.77;97498.75;10523686;28;20048;-68
2023/09/20 11:43:47;;;;;;;2.92;0.43;;;;;;;46.44;7.36;97505.25;10538444;28;20052;-67
2023/09/20 11:49:11;;;;;;;1.55;0.40;;;;;;;40.50;10.86;97508.50;10538512;28;20044;-65
2023/09/20 11:54:34;;;;;;;1.70;0.47;;;;;;;36.62;14.09;97502.34;10537085;28;20052;-66
2023/09/20 11:59:59;;;;;;;1.77;0.60;;;;;;;35.17;15.03;97495.38;10538261;28;20044;-65
2023/09/20 12:05:21;;;;;;;1.45;0.50;;;;;;;33.42;16.48;97489.16;10537088;28;20040;-65
2023/09/20 12:10:43;;;;;;;1.05;0.50;;;;;;;32.97;17.03;97489.63;10536832;28;20371;-65
2023/09/20 12:16:04;;;;;;;2.45;0.55;;;;;;;32.17;18.70;97490.78;10537978;28;20051;-65
2023/09/20 12:21:25;;;;;;;1.40;0.73;;;;;;;30.83;20.30;97490.47;10537738;28;20090;-65
2023/09/20 12:26:46;;;;;;;1.52;0.60;;;;;;;29.79;22.24;97481.16;10537726;28;20076;-65
2023/09/20 12:32:07;;;;;;;1.67;0.80;;;;;;;29.50;22.58;97466.44;10545552;28;20063;-65
2023/09/20 12:37:30;;;;;;;1.80;0.70;;;;;;;30.07;22.06;97473.63;10545358;28;20042;-65
2023/09/20 12:42:51;;;;;;;2.95;0.90;;;;;;;30.14;21.51;97466.34;10545169;28;20282;-65
2023/09/20 12:48:12;;;;;;;1.77;0.90;;;;;;;29.74;21.70;97444.59;10544857;28;20052;-65
2023/09/20 12:53:33;;;;;;;2.17;1.00;;;;;;;29.30;22.85;97449.41;10544596;28;20482;-65
2023/09/20 12:58:56;;;;;;;2.30;1.10;;;;;;;28.82;23.35;97441.97;10544312;28;20044;-65
2023/09/20 13:04:17;;;;;;;1.83;1.00;;;;;;;28.59;24.10;97427.84;10543162;28;20052;-65
2023/09/20 13:09:39;;;;;;;2.13;0.60;;;;;;;28.21;25.24;97418.06;10544123;28;20048;-65
2023/09/20 13:15:00;;;;;;;3.20;0.85;;;;;;;28.44;25.93;97418.63;10543849;28;20075;-65
2023/09/20 13:20:24;;;;;;;3.75;1.10;;;;;;;27.90;27.13;97411.13;10543631;28;20052;-65
2023/09/20 13:25:45;;;;;;;3.40;0.80;;;;;;;27.36;28.46;97412.78;10543129;28;20545;-64
2023/09/20 13:31:07;;;;;;;1.40;0.70;;;;;;;26.72;29.13;97397.19;10541809;28;20048;-65
2023/09/20 13:36:28;;;;;;;1.73;0.80;;;;;;;26.89;28.87;97407.19;10542314;28;20055;-64
2023/09/20 13:41:53;;;;;;;1.73;0.80;;;;;;;26.72;29.35;97388.59;10527800;28;20489;-65
2023/09/20 13:47:18;;;;;;;2.72;0.63;;;;;;;26.56;29.56;97392.22;10542189;28;20047;-64
2023/09/20 13:52:47;;;;;;;2.17;0.63;;;;;;;26.52;29.45;97390.06;10542034;28;20054;-65
2023/09/20 13:58:08;;;;;;;1.33;0.60;;;;;;;26.51;29.59;97371.47;10541912;28;20047;-64
2023/09/20 14:03:29;;;;;;;3.63;0.60;;;;;;;27.05;29.10;97366.38;10526264;28;20437;-64
2023/09/20 14:08:50;;;;;;;1.80;0.60;;;;;;;27.29;28.04;97368.41;10541563;28;20052;-64
2023/09/20 14:14:11;;;;;;;2.47;0.73;;;;;;;27.41;27.79;97382.69;10541506;28;20062;-64
2023/09/20 14:19:35;;;;;;;1.02;0.50;;;;;;;26.94;28.04;97350.63;10540423;28;20043;-65
2023/09/20 14:24:56;;;;;;;2.55;0.70;;;;;;;26.58;28.04;97334.28;10540110;28;20127;-64
2023/09/20 14:30:18;;;;;;;1.00;0.40;;;;;;;26.70;27.87;97345.69;10539616;28;20051;-65
2023/09/20 14:35:39;;;;;;;3.95;0.73;;;;;;;26.69;27.72;97324.94;10540339;28;20056;-65
2023/09/20 14:41:01;;;;;;;1.27;0.50;;;;;;;26.43;28.67;97319.25;10540152;28;20040;-64
2023/09/20 14:46:22;;;;;;;2.72;0.52;;;;;;;26.17;29.45;97317.13;10540108;28;20050;-64
2023/09/20 14:51:43;;;;;;;1.40;0.50;;;;;;;26.37;29.07;97314.28;10538338;28;20104;-64
2023/09/20 14:57:04;;;;;;;0.85;0.30;;;;;;;26.19;29.67;97315.00;10539626;28;20048;-65
2023/09/20 15:02:25;;;;;;;1.08;0.40;;;;;;;26.23;29.27;97314.25;10539603;28;20048;-65
2023/09/20 15:07:48;;;;;;;2.65;0.40;;;;;;;26.15;29.80;97306.41;10539245;28;20410;-64
2023/09/20 15:13:10;;;;;;;1.75;0.50;;;;;;;26.05;29.76;97299.97;10539299;28;20044;-64
2023/09/20 15:18:34;;;;;;;2.78;0.60;;;;;;;26.07;30.02;97302.84;10538939;28;20520;-64
2023/09/20 15:23:57;;;;;;;1.42;0.30;;;;;;;26.20;29.97;97292.81;10537695;28;20109;-64
2023/09/20 15:29:18;;;;;;;1.05;0.40;;;;;;;26.18;29.99;97289.97;10539051;28;20048;-64
2023/09/20 15:34:39;;;;;;;1.67;0.40;;;;;;;25.89;30.66;97297.84;10523839;28;20045;-64
2023/09/20 15:40:03;;;;;;;1.27;0.40;;;;;;;25.69;30.61;97284.25;10537741;28;20071;-64
2023/09/20 15:45:25;;;;;;;1.95;0.57;;;;;;;25.60;31.36;97285.66;10538399;28;20044;-65
2023/09/20 15:50:48;;;;;;;3.58;0.40;;;;;;;25.42;31.08;97285.63;10538680;28;20044;-64
2023/09/20 15:56:09;;;;;;;1.65;0.40;;;;;;;25.34;31.58;97267.03;10538268;28;20048;-65
2023/09/20 16:01:31;;;;;;;0.95;0.40;;;;;;;25.18;32.58;97278.44;10537253;28;20055;-64
2023/09/20 16:06:52;;;;;;;;;;;;;;;25.02;33.19;97284.09;10545199;28;20443;-64
2023/09/20 16:12:13;;;;;;;1.45;0.40;;;;;;;24.84;33.65;97274.03;10546085;28;19920;-65
2023/09/20 16:17:35;;;;;;;2.15;0.40;;;;;;;24.66;34.51;97276.09;10545781;28;20044;-65
2023/09/20 16:22:57;;;;;;;3.38;0.70;;;;;;;24.47;34.84;97266.72;10545507;28;20052;-64
2023/09/20 16:28:18;;;;;;;3.10;0.60;;;;;;;24.32;35.57;97265.19;10545442;28;20048;-64
2023/09/20 16:33:39;;;;;;;2.88;0.60;;;;;;;24.17;35.75;97264.38;10544198;28;20052;-65
2023/09/20 16:39:00;;;;;;;1.83;0.40;;;;;;;24.02;36.22;97260.72;10530038;28;20052;-62
2023/09/20 16:44:21;;;;;;;2.35;0.43;;;;;;;23.84;36.45;97258.47;10543785;28;20044;-62
2023/09/20 16:49:42;;;;;;;3.22;0.70;;;;;;;23.71;36.87;97256.91;10544573;28;20074;-62
2023/09/20 16:55:04;;;;;;;2.38;0.50;;;;;;;23.59;37.06;97257.53;10543563;28;20043;-62
2023/09/20 17:00:25;;;;;;;4.50;0.60;;;;;;;23.50;37.45;97261.00;10544182;28;20051;-62
2023/09/20 17:05:46;;;;;;;2.15;0.50;;;;;;;23.42;37.62;97255.94;10543900;28;20118;-64
2023/09/20 17:11:09;;;;;;;4.85;0.40;;;;;;;23.33;37.78;97260.13;10543569;28;20444;-64
2023/09/20 17:16:31;;;;;;;2.00;0.85;;;;;;;23.22;37.98;97261.44;10543215;28;20117;-64
2023/09/20 17:21:52;;;;;;;3.85;0.63;;;;;;;23.07;38.16;97249.91;10543097;28;20056;-64
2023/09/20 17:27:12;;;;;;;3.80;0.82;;;;;;;22.90;38.40;97256.13;10543149;28;20068;-62
2023/09/20 17:32:49;;;;;;;2.80;0.82;;;;;;;22.75;38.57;97263.72;10543133;28;20474;-64
2023/09/20 17:38:10;;;;;;;3.72;0.73;;;;;;;22.64;39.20;97265.75;10541838;28;20109;-65
2023/09/20 17:43:34;;;;;;;;;;;;;;;22.54;39.56;97277.69;10541790;28;20122;-64
2023/09/20 17:48:56;;;;;;;4.60;0.80;;;;;;;22.45;41.01;97275.44;10542756;28;20011;-64
2023/09/20 17:54:17;;;;;;;2.20;1.10;;;;;;;22.37;40.39;97267.50;10541992;28;20052;-64
2023/09/20 17:59:39;;;;;;;2.15;0.68;;;;;;;22.23;41.17;97270.19;10526815;28;20083;-62
2023/09/20 18:05:01;;;;;;;3.22;0.70;;;;;;;22.09;41.34;97267.13;10541570;28;20387;-62
2023/09/20 18:10:23;;;;;;;4.82;0.82;;;;;;;22.06;41.88;97268.47;10541574;28;20044;-62
2023/09/20 18:15:46;;;;;;;3.50;0.77;;;;;;;21.99;42.08;97270.50;10541210;28;20071;-62
2023/09/20 18:21:07;;;;;;;3.63;0.88;;;;;;;21.90;42.32;97275.34;10541405;28;20059;-62
2023/09/20 18:26:28;;;;;;;2.03;0.98;;;;;;;21.82;42.78;97271.66;10540531;28;20055;-62
2023/09/20 18:31:50;;;;;;;2.85;0.80;;;;;;;21.77;42.82;97275.84;10540947;28;20071;-64
2023/09/20 18:37:13;;;;;;;6.30;0.85;;;;;;;21.69;43.42;97267.91;10541368;28;20093;-62
2023/09/20 18:42:34;;;;;;;2.72;0.65;;;;;;;21.59;43.94;97273.41;10540324;28;20128;-62
2023/09/20 18:47:56;;;;;;;4.40;0.80;;;;;;;21.50;43.70;97269.00;10540445;28;20052;-62
2023/09/20 18:53:17;;;;;;;1.43;0.40;;;;;;;21.45;43.81;97258.97;10538944;28;20079;-62
2023/09/20 18:58:39;;;;;;;3.53;0.82;;;;;;;21.34;43.87;97255.97;10540010;28;20068;-64
2023/09/20 19:04:00;;;;;;;4.95;0.60;;;;;;;21.28;44.30;97255.84;10539769;28;20051;-62
2023/09/20 19:09:24;;;;;;;2.00;0.70;;;;;;;21.17;44.19;97256.34;10539621;28;20127;-62
2023/09/20 19:14:48;;;;;;;1.95;0.63;;;;;;;21.10;44.31;97255.50;10539618;28;20486;-62
2023/09/20 19:20:17;;;;;;;2.85;0.80;;;;;;;21.00;44.53;97256.03;10539274;28;20083;-62
2023/09/20 19:25:38;;;;;;;3.13;0.80;;;;;;;20.93;45.16;97251.63;10539215;28;20043;-62
2023/09/20 19:31:04;;;;;;;1.10;0.63;;;;;;;20.91;45.31;97248.03;10539556;28;20075;-62
2023/09/20 19:36:26;;;;;;;2.90;0.70;;;;;;;20.80;45.65;97247.13;10539424;28;20048;-62
2023/09/20 19:41:49;;;;;;;4.43;0.85;;;;;;;20.74;46.22;97238.50;10547919;28;20093;-62
2023/09/20 19:47:10;;;;;;;4.32;0.73;;;;;;;20.70;46.49;97244.09;10547356;28;20044;-62
2023/09/20 19:52:32;;;;;;;3.40;0.80;;;;;;;20.63;46.67;97240.41;10547272;28;20409;-62
2023/09/20 19:57:59;;;;;;;1.98;0.60;;;;;;;20.61;46.89;97237.53;10532057;28;20128;-62
2023/09/20 20:03:19;;;;;;;1.90;0.50;;;;;;;20.59;46.87;97243.19;10546654;28;20076;-62
2023/09/20 20:08:40;;;;;;;3.80;0.80;;;;;;;20.46;47.31;97228.03;10546696;28;20077;-62
2023/09/20 20:14:01;;;;;;;1.63;0.60;;;;;;;20.34;48.28;97218.53;10546372;28;20535;-62
2023/09/20 20:19:22;;;;;;;3.30;0.57;;;;;;;20.28;48.29;97216.28;10546508;28;20071;-62
2023/09/20 20:24:43;;;;;;;6.55;0.85;;;;;;;20.25;48.21;97221.19;10545949;28;20064;-62
2023/09/20 20:30:05;;;;;;;0.93;0.60;;;;;;;20.18;48.56;97225.31;10545841;28;20063;-62
2023/09/20 20:35:27;;;;;;;5.05;0.50;;;;;;;20.08;49.20;97222.25;10544502;28;20158;-62
2023/09/20 20:40:47;;;;;;;3.03;0.60;;;;;;;20.01;49.44;97210.06;10545356;28;20040;-62
2023/09/20 20:46:15;;;;;;;4.00;0.60;;;;;;;19.87;50.23;97209.00;10544279;28;20462;-62
2023/09/20 20:51:40;;;;;;;2.05;0.50;;;;;;;19.81;50.49;97206.06;10544050;28;20517;-62
2023/09/20 20:57:01;;;;;;;2.53;0.52;;;;;;;19.71;50.22;97200.88;10544965;28;20132;-62
2023/09/20 21:02:22;;;;;;;2.92;0.70;;;;;;;19.67;50.63;97200.78;10544523;28;20153;-62
2023/09/20 21:07:43;;;;;;;2.22;0.70;;;;;;;19.62;50.60;97190.75;10544331;28;20493;-62
2023/09/20 21:13:05;;;;;;;2.17;0.55;;;;;;;19.58;50.69;97188.53;10542992;28;20052;-62
2023/09/20 21:18:25;;;;;;;1.15;0.55;;;;;;;19.49;51.07;97189.72;10543959;28;20450;-62
2023/09/20 21:23:46;;;;;;;2.85;1.00;;;;;;;19.48;52.09;97179.06;10543332;28;20140;-62
2023/09/20 21:29:06;;;;;;;2.22;0.60;;;;;;;19.42;51.68;97185.31;10543241;28;20052;-62
2023/09/20 21:34:29;;;;;;;1.20;0.43;;;;;;;19.35;51.70;97186.53;10543176;28;20076;-62
2023/09/20 21:39:49;;;;;;;2.97;0.80;;;;;;;19.30;51.68;97185.00;10542795;28;20123;-62
2023/09/20 21:45:10;;;;;;;1.30;0.60;;;;;;;19.24;52.29;97176.38;10542803;28;20443;-62
2023/09/20 21:50:31;;;;;;;2.85;0.52;;;;;;;19.22;52.89;97171.38;10542489;28;20444;-62
2023/09/20 21:55:52;;;;;;;3.63;0.68;;;;;;;19.15;52.71;97179.00;10542436;28;20134;-62
2023/09/20 22:01:12;;;;;;;3.78;0.80;;;;;;;19.10;52.96;97173.91;10541304;28;20127;-62
2023/09/20 22:06:33;;;;;;;2.63;0.52;;;;;;;19.05;53.19;97173.09;10541818;28;20131;-62
2023/09/20 22:11:56;;;;;;;2.35;0.60;;;;;;;19.00;53.62;97174.34;10541897;28;20072;-62
2023/09/20 22:17:19;;;;;;;1.95;0.65;;;;;;;18.94;53.84;97167.84;10541487;28;20390;-62
2023/09/20 22:22:40;;;;;;;1.77;0.55;;;;;;;18.88;54.31;97174.78;10541557;28;20174;-62
2023/09/20 22:28:00;;;;;;;1.70;0.60;;;;;;;18.81;54.86;97172.44;10541423;28;20079;-62
2023/09/20 22:33:21;;;;;;;4.38;0.80;;;;;;;18.74;54.76;97159.56;10540961;28;20082;-62
2023/09/20 22:38:45;;;;;;;5.90;0.75;;;;;;;18.70;55.10;97157.34;10539992;28;20111;-62
2023/09/20 22:44:09;;;;;;;2.75;0.73;;;;;;;18.63;55.09;97157.84;10540438;28;20494;-62
2023/09/20 22:49:32;;;;;;;3.38;0.68;;;;;;;18.55;56.00;97156.22;10540630;28;20105;-64
2023/09/20 22:54:53;;;;;;;4.93;0.90;;;;;;;18.48;55.91;97148.97;10539095;28;20117;-64
2023/09/20 23:00:21;;;;;;;3.33;0.75;;;;;;;18.43;56.37;97144.59;10539193;28;20090;-64
2023/09/20 23:05:42;;;;;;;2.55;0.70;;;;;;;18.38;56.82;97145.13;10539940;28;20068;-62
2023/09/20 23:11:09;;;;;;;1.40;0.65;;;;;;;18.33;57.05;97140.75;10538609;28;20044;-64
2023/09/20 23:16:31;;;;;;;2.47;0.80;;;;;;;18.26;57.34;97145.53;10525509;28;20498;-62
2023/09/20 23:21:52;;;;;;;4.25;1.10;;;;;;;18.15;57.75;97141.69;10539591;28;20128;-62
2023/09/20 23:27:16;;;;;;;2.97;0.65;;;;;;;18.08;58.17;97147.84;10539350;28;20059;-64
2023/09/20 23:32:40;;;;;;;3.38;0.93;;;;;;;18.01;58.98;97133.53;10539541;28;20597;-64
2023/09/20 23:38:11;;;;;;;1.80;0.70;;;;;;;17.96;59.65;97132.00;10539070;28;20051;-64
2023/09/20 23:43:33;;;;;;;4.25;0.95;;;;;;;17.85;60.20;97135.88;10539127;28;20406;-64
2023/09/20 23:48:55;;;;;;;3.63;0.80;;;;;;;17.74;60.78;97132.03;10538923;28;20072;-64
2023/09/20 23:54:16;;;;;;;2.65;0.90;;;;;;;17.67;61.12;97136.03;10539425;28;20131;-65
2023/09/20 23:59:36;;;;;;;2.42;0.80;;;;;;;17.59;61.49;97126.63;10538653;28;20091;-64
